Strona główna
METAR-TAF:

METAR-TAF

Lotnisko :

Port lotniczy Tuluza-Blagnac

Tuluza, Francja

Szerokość geograficzna: 43-38N, Długość geograficzna: 001-22E, wysokość: 152 m

Aktualna obserwacja pogody

Raport powstał 39 minut temu, godzina 18:30 UTC
Wiatr 3 kt z kierunków zmiennych
Temperatura 30°C
Wilgotność 38%
Ciśnienie 1009 hPa
Widzialność 10 km lub więcej
Brak chmur poniżej 1500 m i brak chmur cumulonimbus

METAR: LFBO 251830Z AUTO VRB03KT CAVOK 30/14 Q1009 NOSIG

czas: 21:09 (19:09 UTC)

Prognoza

Raport powstał 2 godziny i 9 minut temu, godzina 17:00 UTC
Prognoza ważna od 25 godzina 18 UTC do 26 godzina 24 UTC
Wiatr 3 kt z kierunków zmiennych
Widzialność 10 km lub więcej
Brak chmur poniżej 1500 m i brak chmur cumulonimbus
Stopniowe zmiany
od 25 godzina 20 UTC do 25 godzina 22 UTC
Wiatr 8 kt od południowy wschód

TAF: LFBO 251700Z 2518/2624 VRB03KT CAVOK BECMG 2520/2522 14008KT

Obserwacja i prognoza pogody dla ponad 4000 lotnisk (raport METAR i TAF).

Dostępne stacje oznaczono żółtymi i czerwonymi punktami na mapie.

Najedź kursorem aby zobaczyć nazwę stacji.

Kliknij aby zobaczyć obserwacje i prognozy pogody.

Aby zmienić mapę: kliknij na zielony przycisk z czarnym krzyżykiem, aby powiększyć; na zielony przycisk z myślnikiem, aby pomniejszyć; na zielone strzałki, aby przejść do map sąsiednich.


METAR-TAF: